U.S. Weather Extremes for
Thursday, August 16, 2018

High Temperature


107°F at Thermal, CA

Low Temperature


28°F at West Yellowstone, MT

High Precipitation


7.26in at Blytheville Municipal, AR


Data for lower 48 states and courtesy of
NWS-CPC

North Georgia & Southern Appalachians METAR Reports

KDZJ - Blairsville, Georgia, USA
Distance from station: NNW 11mi, 18km
Updated: Fri, 17-Aug-2018 1:55pm CDT
Clear
Clear
 Wind from WSW
Wind:
WSW 5 mph 7 km/h
Temperature: 84°F , 29°C
Heat Index: 87°F , 31°C
Dew Point: 68°F , 20°C
Humidity: 58%
Barometer: 30.18 inHg , 1022 hPa
Clouds: Clear
Visibility: 10 miles , 16 km
2018/08/17 18:55 KDZJ 171855Z AUTO 25004KT 10SM CLR 29/20 A3018 RMK AO2 T02890199
KAJR - Cornelia, Georgia, USA
Distance from station: SE 25mi, 41km
Updated: Fri, 17-Aug-2018 1:55pm CDT
Partly Cloudy
Partly Cloudy
 Wind from S
Wind:
S 6 mph 9 km/h
Temperature: 82°F , 28°C
Heat Index: 90°F , 32°C
Dew Point: 77°F , 25°C
Humidity: 84%
Barometer: 30.16 inHg , 1021.3 hPa
Clouds: Partly Cloudy
Visibility: 10 miles , 16 km
Cloud details: Partly Cloudy 2800 ft
Partly Cloudy 3700 ft
2018/08/17 18:55 KAJR 171855Z AUTO 18005KT 10SM SCT028 SCT037 28/25 A3016 RMK AO2 LTG DSNT N T02780252
 
KGVL - Gainesville, Georgia, USA
Distance from station: S 31mi, 50km
Updated: Fri, 17-Aug-2018 1:53pm CDT
Nearby thunderstorm, Mostly cloudy
Nearby thunderstorm, Mostly cloudy
 Wind from calm
Wind:
Calm
Temperature: 82°F , 28°C
Heat Index: 86°F , 30°C
Dew Point: 72°F , 22°C
Humidity: 70%
Barometer: 30.17 inHg , 1021.7 hPa
Summary: Nearby Thunderstorm
Clouds: Mostly Cloudy
Visibility: 10 miles , 16 km
Cloud details: Partly Cloudy 3000 ft
Mostly Cloudy 7000 ft
2018/08/17 18:53 KGVL 171853Z AUTO 00000KT 10SM VCTS SCT030 BKN070 28/22 A3017 RMK AO2 LTG DSNT E RAB00E15 SLP198 P0003 T02830222
KRHP - Andrews, North Carolina, USA
Distance from station: N 33mi, 53km
Updated: Fri, 17-Aug-2018 1:50pm CDT
Partly Cloudy
Partly Cloudy
 Wind from SW
Wind:
SW 5 mph 7 km/h
Temperature: 82°F , 28°C
Heat Index: 85°F , 29°C
Dew Point: 68°F , 20°C
Humidity: 62%
Barometer: 30.16 inHg , 1021.3 hPa
Clouds: Partly Cloudy
Visibility: 10 miles , 16 km
Cloud details: Partly Cloudy 3600 ft
2018/08/17 18:50 KRHP 171850Z AUTO 22004KT 10SM SCT036 28/20 A3016 RMK AO2 T02760202
 
KJZP - Jasper, Georgia, USA
Distance from station: WSW 35mi, 57km
Updated: Fri, 17-Aug-2018 1:55pm CDT
Mostly Cloudy
Mostly Cloudy
 Wind from calm
Wind:
Calm
Temperature: 82°F , 28°C
Heat Index: 86°F , 30°C
Dew Point: 72°F , 22°C
Humidity: 70%
Barometer: 30.19 inHg , 1022.4 hPa
Clouds: Mostly Cloudy
Visibility: 10 miles , 16 km
Cloud details: Partly Cloudy 2900 ft
Mostly Cloudy 3700 ft
Mostly Cloudy 4200 ft
2018/08/17 18:55 KJZP 171855Z AUTO 00000KT 10SM SCT029 BKN037 BKN042 28/22 A3019 RMK AO2 T02760218 PNO
KTOC - Toccoa, Georgia, USA
Distance from station: E 36mi, 58km
Updated: Fri, 17-Aug-2018 1:55pm CDT
Light rain, Mostly cloudy
Light rain, Mostly cloudy
 Wind from SSW
Wind:
SSW 6 mph 9 km/h
Temperature: 82°F , 28°C
Heat Index: 89°F , 32°C
Dew Point: 75°F , 24°C
Humidity: 79%
Barometer: 30.14 inHg , 1020.7 hPa
Summary: Light Rain
Clouds: Mostly Cloudy
Visibility: 10 miles , 16 km
Cloud details: Mostly Cloudy 9000 ft
2018/08/17 18:55 KTOC 171855Z AUTO 20005KT 10SM -RA BKN090 28/24 A3014 RMK AO2 T02830240
 
KCNI - Canton/Cherokee, Georgia, USA
Distance from station: SW 39mi, 63km
Updated: Fri, 17-Aug-2018 1:55pm CDT
Partly Cloudy
Partly Cloudy
 Wind from SSE
Wind:
SSE 8 mph 13 km/h
Temperature: 81°F , 27°C
Heat Index: 86°F , 30°C
Dew Point: 73°F , 23°C
Humidity: 79%
Barometer: 30.17 inHg , 1021.7 hPa
Clouds: Partly Cloudy
Visibility: 10 miles , 16 km
Cloud details: Partly Cloudy 4700 ft
Partly Cloudy 7000 ft
Partly Cloudy 11000 ft
2018/08/17 18:55 KCNI 171855Z AUTO 16007KT 10SM SCT047 SCT070 SCT110 27/23 A3017 RMK AO2
KJCA - Jefferson, Georgia, USA
Distance from station: SSE 41mi, 67km
Updated: Fri, 17-Aug-2018 1:55pm CDT
Light rain, Overcast
Light rain, Overcast
 Wind from SW
Wind:
SW 6 mph 9 km/h
Temperature: 79°F , 26°C
Dew Point: 73°F , 23°C
Humidity: 84%
Barometer: 30.15 inHg , 1021 hPa
Summary: Light Rain
Clouds: Overcast
Visibility: 10 miles , 16 km
Cloud details: Mostly Cloudy 3000 ft
Mostly Cloudy 3600 ft
Overcast 8500 ft
2018/08/17 18:55 KJCA 171855Z AUTO 23005KT 10SM -RA BKN030 BKN036 OVC085 26/23 A3015 RMK AO2 LTG DSNT NE AND NW T02640229
 
K1A5 - Macon/Franklin, North Carolina, USA
Distance from station: NE 45mi, 73km
Updated: Fri, 17-Aug-2018 1:50pm CDT
Partly Cloudy
Partly Cloudy
 Wind from calm
Wind:
Calm
Temperature: 84°F , 29°C
Heat Index: 86°F , 30°C
Dew Point: 66°F , 19°C
Humidity: 55%
Barometer: 30.17 inHg , 1021.7 hPa
Clouds: Partly Cloudy
Visibility: 10 miles , 16 km
Cloud details: Partly Cloudy 3400 ft
2018/08/17 18:50 K1A5 171850Z AUTO 00000KT 10SM SCT034 29/19 A3017 RMK AO2 T02890189
KLZU - Lawrenceville, Georgia, USA
Distance from station: S 50mi, 81km
Updated: Fri, 17-Aug-2018 1:56pm CDT
Partly Cloudy
Partly Cloudy
 Wind from SSW
Wind:
SSW 7 mph 11 km/h
Temperature: 82°F , 28°C
Heat Index: 87°F , 31°C
Dew Point: 73°F , 23°C
Humidity: 74%
Barometer: 30.14 inHg , 1020.7 hPa
Clouds: Partly Cloudy
Visibility: 10 miles , 16 km
Cloud details: Partly Cloudy 6000 ft
2018/08/17 18:56 KLZU 171856Z 20006KT 10SM SCT060 28/23 A3014 RMK AO2 LTG DSNT NE RAE24 SLP208 P0000 T02830228
 
K18A - Canon/Franklin, Georgia, USA
Distance from station: ESE 51mi, 82km
Updated: Fri, 17-Aug-2018 1:55pm CDT
Nearby thunderstorm, Clear
Nearby thunderstorm, Clear
 Wind from SW
Wind:
SW 6 mph 9 km/h
Temperature: 86°F , 30°C
Heat Index: 92°F , 33°C
Dew Point: 72°F , 22°C
Humidity: 62%
Barometer: 30.14 inHg , 1020.7 hPa
Summary: Nearby Thunderstorm
Clouds: Clear
Visibility: 10 miles , 16 km
2018/08/17 18:55 K18A 171855Z AUTO 22005KT 10SM VCTS CLR 30/22 A3014 RMK AO2 LTG DSNT SE T02970217
KWDR - Winder/Barrow, Georgia, USA
Distance from station: SSE 52mi, 84km
Updated: Fri, 17-Aug-2018 1:52pm CDT
Light rain, Overcast
Light rain, Overcast
 Wind from calm
Wind:
Calm
Temperature: 82°F , 28°C
Heat Index: 90°F , 32°C
Dew Point: 77°F , 25°C
Humidity: 84%
Barometer: 30.17 inHg , 1021.7 hPa
Summary: Light Rain
Clouds: Overcast
Visibility: 10 miles , 16 km
Cloud details: Mostly Cloudy 3200 ft
Overcast 4500 ft
2018/08/17 18:52 KWDR 171852Z AUTO 00000KT 10SM -RA BKN032 OVC045 28/25 A3017 RMK AO1 LTG DSNT SE AND SW
 
KDNN - Dalton, Georgia, USA
Distance from station: W 54mi, 87km
Updated: Fri, 17-Aug-2018 1:55pm CDT
Partly Cloudy
Partly Cloudy
 Wind from S
Wind:
S 3 mph 6 km/h
Temperature: 88°F , 31°C
Heat Index: 95°F , 35°C
Dew Point: 72°F , 22°C
Humidity: 59%
Barometer: 30.13 inHg , 1020.3 hPa
Clouds: Partly Cloudy
Visibility: 10 miles , 16 km
Cloud details: Partly Cloudy 2800 ft
Partly Cloudy 3700 ft
2018/08/17 18:55 KDNN 171855Z AUTO 18003KT 10SM SCT028 SCT037 31/22 A3013 RMK AO2 LTG DSNT S
K24A - Sylva, North Carolina, USA
Distance from station: NE 58mi, 93km
Updated: Fri, 17-Aug-2018 1:50pm CDT
Overcast
Overcast
 Wind from calm
Wind:
Calm
Temperature: 77°F , 25°C
Dew Point: 66°F , 19°C
Humidity: 69%
Barometer: 30.24 inHg , 1024 hPa
Clouds: Overcast
Visibility: 10 miles , 16 km
Cloud details: Partly Cloudy 2700 ft
Mostly Cloudy 3500 ft
Overcast 5500 ft
2018/08/17 18:50 K24A 171850Z AUTO 00000KT 10SM SCT027 BKN035 OVC055 25/19 A3024 RMK AO2 LTG DSNT SE AND NW T02530187
 
KCEU - Clemson, South Carolina, USA
Distance from station: E 59mi, 95km
Updated: Fri, 17-Aug-2018 1:54pm CDT
Few Clouds
Few Clouds
 Wind from varies
Wind:
varies 5 mph 7 km/h
Temperature: 84°F , 29°C
Heat Index: 89°F , 32°C
Dew Point: 72°F , 22°C
Humidity: 66%
Barometer: 30.14 inHg , 1020.7 hPa
Clouds: Few Clouds
Visibility: 10 miles , 16 km
Cloud details: Few Clouds 3200 ft
Few Clouds 4700 ft
2018/08/17 18:54 KCEU 171854Z AUTO VRB04KT 10SM FEW032 FEW047 29/22 A3014 RMK AO2 LTG DSNT SW SLP195 T02890222
KMMI - Athens/Mcminn, Tennessee, USA
Distance from station: NW 60mi, 97km
Updated: Fri, 17-Aug-2018 1:55pm CDT
Partly Cloudy
Partly Cloudy
 Wind from varies
Wind:
varies 8 mph 13 km/h
, Gust: 15 mph 24 km/h
Temperature: 84°F , 29°C
Heat Index: 90°F , 32°C
Dew Point: 73°F , 23°C
Humidity: 70%
Barometer: 30.12 inHg , 1020 hPa
Clouds: Partly Cloudy
Visibility: 10 miles , 16 km
Cloud details: Partly Cloudy 2800 ft
Partly Cloudy 3700 ft
2018/08/17 18:55 KMMI 171855Z AUTO VRB07G13KT 150V250 10SM SCT028 SCT037 29/23 A3012 RMK A01
 
KCZL - Calhoun, Georgia, USA
Distance from station: WSW 61mi, 97km
Updated: Fri, 17-Aug-2018 1:55pm CDT
Partly Cloudy
Partly Cloudy
 Wind from S
Wind:
S 6 mph 9 km/h
Temperature: 86°F , 30°C
Heat Index: 91°F , 33°C
Dew Point: 70°F , 21°C
Humidity: 59%
Barometer: 30.13 inHg , 1020.3 hPa
Clouds: Partly Cloudy
Visibility: 10 miles , 16 km
Cloud details: Partly Cloudy 3300 ft
Partly Cloudy 4600 ft
2018/08/17 18:55 KCZL 171855Z AUTO 19005KT 10SM SCT033 SCT046 30/21 A3013 RMK AO2
KPDK - Peachtree/Dekalb, Georgia, USA
Distance from station: SSW 61mi, 98km
Updated: Fri, 17-Aug-2018 1:53pm CDT
Few Clouds
Few Clouds
 Wind from WSW
Wind:
WSW 9 mph 15 km/h
Temperature: 84°F , 29°C
Heat Index: 89°F , 32°C
Dew Point: 72°F , 22°C
Humidity: 66%
Barometer: 30.14 inHg , 1020.7 hPa
Clouds: Few Clouds
Visibility: 10 miles , 16 km
Cloud details: Few Clouds 4000 ft
2018/08/17 18:53 KPDK 171853Z 25008KT 10SM FEW040 29/22 A3014 RMK AO2 LTG DSNT NW SLP189 T02940222
 
KRZR - Cleveland Reg., Tennessee, USA
Distance from station: NW 61mi, 98km
Updated: Fri, 17-Aug-2018 1:55pm CDT
Few Clouds
Few Clouds
 Wind from varies
Wind:
varies 7 mph 11 km/h
, Gust: 16 mph 26 km/h
Temperature: 86°F , 30°C
Heat Index: 93°F , 34°C
Dew Point: 73°F , 23°C
Humidity: 66%
Barometer: 30.08 inHg , 1018.6 hPa
Clouds: Few Clouds
Visibility: 10 miles , 16 km
Cloud details: Few Clouds 2700 ft
2018/08/17 18:55 KRZR 171855Z AUTO VRB06G14KT 10SM FEW027 30/23 A3008 RMK A01
KRYY - Marietta Mccolum, Georgia, USA
Distance from station: SW 62mi, 99km
Updated: Fri, 17-Aug-2018 2:03pm CDT
Mostly Cloudy
Mostly Cloudy
 Wind from varies
Wind:
varies 6 mph 9 km/h
Temperature: 88°F , 31°C
Heat Index: 95°F , 35°C
Dew Point: 72°F , 22°C
Humidity: 59%
Barometer: 30.14 inHg , 1020.7 hPa
Clouds: Mostly Cloudy
Visibility: 10 miles , 16 km
Cloud details: Partly Cloudy 3100 ft
Mostly Cloudy 4500 ft
2018/08/17 19:03 KRYY 171903Z VRB05KT 10SM SCT031 BKN045 31/22 A3014 RMK AO2 TSE1859

Metar display script from Saratoga-Weather.org